sensor_id;sensor_type;location;lat;lon;timestamp;temperature;humidity
32217;DHT22;67098;51.140;4.088;2023-04-15T00:00:15;14.70;72.10
32217;DHT22;67098;51.140;4.088;2023-04-15T00:02:42;14.70;72.40
32217;DHT22;67098;51.140;4.088;2023-04-15T00:05:08;14.60;72.70
32217;DHT22;67098;51.140;4.088;2023-04-15T00:07:34;14.50;72.80
32217;DHT22;67098;51.140;4.088;2023-04-15T00:10:00;14.50;72.90
32217;DHT22;67098;51.140;4.088;2023-04-15T00:12:27;14.60;72.70
32217;DHT22;67098;51.140;4.088;2023-04-15T00:14:53;14.50;72.80
32217;DHT22;67098;51.140;4.088;2023-04-15T00:17:19;14.50;72.80
32217;DHT22;67098;51.140;4.088;2023-04-15T00:19:44;14.40;73.10
32217;DHT22;67098;51.140;4.088;2023-04-15T00:22:10;14.50;73.00
32217;DHT22;67098;51.140;4.088;2023-04-15T00:24:37;14.50;72.90
32217;DHT22;67098;51.140;4.088;2023-04-15T00:27:03;14.40;73.00
32217;DHT22;67098;51.140;4.088;2023-04-15T00:29:29;14.40;72.90
32217;DHT22;67098;51.140;4.088;2023-04-15T00:31:55;14.30;73.10
32217;DHT22;67098;51.140;4.088;2023-04-15T00:34:22;14.20;73.80
32217;DHT22;67098;51.140;4.088;2023-04-15T00:36:48;14.10;73.50
32217;DHT22;67098;51.140;4.088;2023-04-15T00:39:13;14.00;73.90
32217;DHT22;67098;51.140;4.088;2023-04-15T00:41:40;13.90;74.70
32217;DHT22;67098;51.140;4.088;2023-04-15T00:44:06;13.90;75.30
32217;DHT22;67098;51.140;4.088;2023-04-15T00:46:34;13.80;75.90
32217;DHT22;67098;51.140;4.088;2023-04-15T00:49:02;13.70;76.60
32217;DHT22;67098;51.140;4.088;2023-04-15T00:51:28;13.80;77.40
32217;DHT22;67098;51.140;4.088;2023-04-15T00:53:55;13.80;78.00
32217;DHT22;67098;51.140;4.088;2023-04-15T00:56:22;13.90;78.30
32217;DHT22;67098;51.140;4.088;2023-04-15T00:58:50;13.90;78.30
32217;DHT22;67098;51.140;4.088;2023-04-15T01:01:17;13.70;78.80
32217;DHT22;67098;51.140;4.088;2023-04-15T01:03:46;13.70;79.30
32217;DHT22;67098;51.140;4.088;2023-04-15T01:06:12;13.50;80.20
32217;DHT22;67098;51.140;4.088;2023-04-15T01:08:38;13.70;79.90
32217;DHT22;67098;51.140;4.088;2023-04-15T01:11:04;13.70;79.90
32217;DHT22;67098;51.140;4.088;2023-04-15T01:13:32;13.80;80.00
32217;DHT22;67098;51.140;4.088;2023-04-15T01:15:58;13.90;80.40
32217;DHT22;67098;51.140;4.088;2023-04-15T01:18:25;13.80;80.70
32217;DHT22;67098;51.140;4.088;2023-04-15T01:20:51;13.80;80.80
32217;DHT22;67098;51.140;4.088;2023-04-15T01:23:17;13.90;80.70
32217;DHT22;67098;51.140;4.088;2023-04-15T01:25:43;13.50;81.40
32217;DHT22;67098;51.140;4.088;2023-04-15T01:28:09;13.50;81.50
32217;DHT22;67098;51.140;4.088;2023-04-15T01:30:35;13.50;81.60
32217;DHT22;67098;51.140;4.088;2023-04-15T01:33:01;13.70;81.70
32217;DHT22;67098;51.140;4.088;2023-04-15T01:35:27;13.70;81.60
32217;DHT22;67098;51.140;4.088;2023-04-15T01:37:53;13.40;82.50
32217;DHT22;67098;51.140;4.088;2023-04-15T01:40:20;13.30;83.00
32217;DHT22;67098;51.140;4.088;2023-04-15T01:42:47;13.20;83.30
32217;DHT22;67098;51.140;4.088;2023-04-15T01:45:12;13.30;83.80
32217;DHT22;67098;51.140;4.088;2023-04-15T01:47:38;13.20;84.10
32217;DHT22;67098;51.140;4.088;2023-04-15T01:50:05;13.30;84.20
32217;DHT22;67098;51.140;4.088;2023-04-15T01:52:31;13.20;84.40
32217;DHT22;67098;51.140;4.088;2023-04-15T01:54:57;13.30;83.70
32217;DHT22;67098;51.140;4.088;2023-04-15T01:57:22;13.50;83.10
32217;DHT22;67098;51.140;4.088;2023-04-15T01:59:48;13.50;82.90
32217;DHT22;67098;51.140;4.088;2023-04-15T02:02:14;13.60;82.80
32217;DHT22;67098;51.140;4.088;2023-04-15T02:04:39;13.60;82.60
32217;DHT22;67098;51.140;4.088;2023-04-15T02:07:05;13.60;82.20
32217;DHT22;67098;51.140;4.088;2023-04-15T02:09:31;13.40;82.80
32217;DHT22;67098;51.140;4.088;2023-04-15T02:11:57;13.50;82.70
32217;DHT22;67098;51.140;4.088;2023-04-15T02:14:23;13.50;82.80
32217;DHT22;67098;51.140;4.088;2023-04-15T02:16:48;13.50;83.10
32217;DHT22;67098;51.140;4.088;2023-04-15T02:19:14;13.60;83.00
32217;DHT22;67098;51.140;4.088;2023-04-15T02:21:39;13.50;82.60
32217;DHT22;67098;51.140;4.088;2023-04-15T02:24:06;13.50;83.60
32217;DHT22;67098;51.140;4.088;2023-04-15T02:26:31;13.50;83.90
32217;DHT22;67098;51.140;4.088;2023-04-15T02:28:58;13.50;84.40
32217;DHT22;67098;51.140;4.088;2023-04-15T02:31:24;13.40;85.10
32217;DHT22;67098;51.140;4.088;2023-04-15T02:33:50;13.30;85.20
32217;DHT22;67098;51.140;4.088;2023-04-15T02:36:16;13.30;85.00
32217;DHT22;67098;51.140;4.088;2023-04-15T02:38:42;13.40;85.00
32217;DHT22;67098;51.140;4.088;2023-04-15T02:41:08;13.30;85.20
32217;DHT22;67098;51.140;4.088;2023-04-15T02:43:34;13.30;85.50
32217;DHT22;67098;51.140;4.088;2023-04-15T02:46:00;13.30;85.50
32217;DHT22;67098;51.140;4.088;2023-04-15T02:48:26;13.30;85.40
32217;DHT22;67098;51.140;4.088;2023-04-15T02:50:51;13.30;85.40
32217;DHT22;67098;51.140;4.088;2023-04-15T02:53:17;13.40;85.70
32217;DHT22;67098;51.140;4.088;2023-04-15T02:55:44;13.40;85.20
32217;DHT22;67098;51.140;4.088;2023-04-15T02:58:10;13.40;85.20
32217;DHT22;67098;51.140;4.088;2023-04-15T03:00:36;13.30;85.80
32217;DHT22;67098;51.140;4.088;2023-04-15T03:03:04;13.30;86.30
32217;DHT22;67098;51.140;4.088;2023-04-15T03:05:30;13.20;86.60
32217;DHT22;67098;51.140;4.088;2023-04-15T03:07:56;13.20;87.00
32217;DHT22;67098;51.140;4.088;2023-04-15T03:10:22;13.20;87.30
32217;DHT22;67098;51.140;4.088;2023-04-15T03:12:48;13.20;87.50
32217;DHT22;67098;51.140;4.088;2023-04-15T03:15:14;13.20;87.50
32217;DHT22;67098;51.140;4.088;2023-04-15T03:17:40;13.20;87.80
32217;DHT22;67098;51.140;4.088;2023-04-15T03:20:06;13.20;88.40
32217;DHT22;67098;51.140;4.088;2023-04-15T03:22:32;13.10;88.80
32217;DHT22;67098;51.140;4.088;2023-04-15T03:24:58;13.10;89.20
32217;DHT22;67098;51.140;4.088;2023-04-15T03:27:24;13.00;89.70
32217;DHT22;67098;51.140;4.088;2023-04-15T03:29:50;12.90;90.10
32217;DHT22;67098;51.140;4.088;2023-04-15T03:32:16;12.90;90.30
32217;DHT22;67098;51.140;4.088;2023-04-15T03:34:41;12.90;90.40
32217;DHT22;67098;51.140;4.088;2023-04-15T03:37:07;12.90;90.60
32217;DHT22;67098;51.140;4.088;2023-04-15T03:39:33;12.80;90.80
32217;DHT22;67098;51.140;4.088;2023-04-15T03:41:59;12.80;91.00
32217;DHT22;67098;51.140;4.088;2023-04-15T03:44:26;12.80;91.40
32217;DHT22;67098;51.140;4.088;2023-04-15T03:46:51;12.80;91.40
32217;DHT22;67098;51.140;4.088;2023-04-15T03:49:17;12.80;91.40
32217;DHT22;67098;51.140;4.088;2023-04-15T03:51:44;12.80;91.30
32217;DHT22;67098;51.140;4.088;2023-04-15T03:54:09;12.80;91.50
32217;DHT22;67098;51.140;4.088;2023-04-15T03:56:36;12.80;91.70
32217;DHT22;67098;51.140;4.088;2023-04-15T03:59:01;12.80;91.70
32217;DHT22;67098;51.140;4.088;2023-04-15T04:01:27;12.80;91.80
32217;DHT22;67098;51.140;4.088;2023-04-15T04:03:53;12.90;91.80
32217;DHT22;67098;51.140;4.088;2023-04-15T04:06:18;13.00;91.80
32217;DHT22;67098;51.140;4.088;2023-04-15T04:08:44;12.90;91.70
32217;DHT22;67098;51.140;4.088;2023-04-15T04:11:10;13.00;91.60
32217;DHT22;67098;51.140;4.088;2023-04-15T04:13:36;12.90;91.70
32217;DHT22;67098;51.140;4.088;2023-04-15T04:16:01;12.90;91.70
32217;DHT22;67098;51.140;4.088;2023-04-15T04:18:29;12.90;91.60
32217;DHT22;67098;51.140;4.088;2023-04-15T04:20:55;12.90;91.50
32217;DHT22;67098;51.140;4.088;2023-04-15T04:23:21;13.00;91.50
32217;DHT22;67098;51.140;4.088;2023-04-15T04:25:47;13.00;91.50
32217;DHT22;67098;51.140;4.088;2023-04-15T04:28:13;13.10;91.50
32217;DHT22;67098;51.140;4.088;2023-04-15T04:30:39;13.10;91.50
32217;DHT22;67098;51.140;4.088;2023-04-15T04:33:06;13.10;91.60
32217;DHT22;67098;51.140;4.088;2023-04-15T04:35:31;13.10;91.80
32217;DHT22;67098;51.140;4.088;2023-04-15T04:37:59;13.10;91.70
32217;DHT22;67098;51.140;4.088;2023-04-15T04:40:25;13.10;91.60
32217;DHT22;67098;51.140;4.088;2023-04-15T04:42:52;13.10;91.50
32217;DHT22;67098;51.140;4.088;2023-04-15T04:45:18;13.10;91.70
32217;DHT22;67098;51.140;4.088;2023-04-15T04:47:44;13.10;91.60
32217;DHT22;67098;51.140;4.088;2023-04-15T04:50:11;13.00;91.80
32217;DHT22;67098;51.140;4.088;2023-04-15T04:52:37;13.00;91.90
32217;DHT22;67098;51.140;4.088;2023-04-15T04:55:03;13.10;91.80
32217;DHT22;67098;51.140;4.088;2023-04-15T04:57:28;13.00;91.80
32217;DHT22;67098;51.140;4.088;2023-04-15T04:59:54;13.10;91.90
32217;DHT22;67098;51.140;4.088;2023-04-15T05:02:20;13.10;91.80
32217;DHT22;67098;51.140;4.088;2023-04-15T05:04:46;13.10;91.70
32217;DHT22;67098;51.140;4.088;2023-04-15T05:07:11;13.10;91.80
32217;DHT22;67098;51.140;4.088;2023-04-15T05:09:37;13.00;91.90
32217;DHT22;67098;51.140;4.088;2023-04-15T05:12:03;13.10;92.10
32217;DHT22;67098;51.140;4.088;2023-04-15T05:14:29;13.10;92.10
32217;DHT22;67098;51.140;4.088;2023-04-15T05:16:55;13.00;92.20
32217;DHT22;67098;51.140;4.088;2023-04-15T05:19:21;12.90;91.90
32217;DHT22;67098;51.140;4.088;2023-04-15T05:21:46;12.90;91.50
32217;DHT22;67098;51.140;4.088;2023-04-15T05:24:12;12.90;91.40
32217;DHT22;67098;51.140;4.088;2023-04-15T05:26:38;12.80;90.80
32217;DHT22;67098;51.140;4.088;2023-04-15T05:29:03;12.70;86.60
32217;DHT22;67098;51.140;4.088;2023-04-15T05:31:29;12.60;85.50
32217;DHT22;67098;51.140;4.088;2023-04-15T05:33:55;12.70;86.20
32217;DHT22;67098;51.140;4.088;2023-04-15T05:36:20;12.70;86.20
32217;DHT22;67098;51.140;4.088;2023-04-15T05:38:46;12.70;85.80
32217;DHT22;67098;51.140;4.088;2023-04-15T05:41:12;12.70;84.90
32217;DHT22;67098;51.140;4.088;2023-04-15T05:43:40;12.80;85.80
32217;DHT22;67098;51.140;4.088;2023-04-15T05:46:05;12.80;86.00
32217;DHT22;67098;51.140;4.088;2023-04-15T05:48:33;12.80;86.70
32217;DHT22;67098;51.140;4.088;2023-04-15T05:50:59;12.80;87.40
32217;DHT22;67098;51.140;4.088;2023-04-15T05:53:25;12.90;87.90
32217;DHT22;67098;51.140;4.088;2023-04-15T05:55:51;12.90;88.10
32217;DHT22;67098;51.140;4.088;2023-04-15T05:58:16;12.80;86.50
32217;DHT22;67098;51.140;4.088;2023-04-15T06:00:42;12.90;86.50
32217;DHT22;67098;51.140;4.088;2023-04-15T06:03:09;12.90;86.70
32217;DHT22;67098;51.140;4.088;2023-04-15T06:05:36;12.80;86.70
32217;DHT22;67098;51.140;4.088;2023-04-15T06:08:01;12.90;86.90
32217;DHT22;67098;51.140;4.088;2023-04-15T06:10:27;13.00;87.80
32217;DHT22;67098;51.140;4.088;2023-04-15T06:12:53;13.10;87.80
32217;DHT22;67098;51.140;4.088;2023-04-15T06:15:18;13.10;88.20
32217;DHT22;67098;51.140;4.088;2023-04-15T06:17:44;13.20;88.10
32217;DHT22;67098;51.140;4.088;2023-04-15T06:20:10;13.40;87.70
32217;DHT22;67098;51.140;4.088;2023-04-15T06:22:36;13.50;87.50
32217;DHT22;67098;51.140;4.088;2023-04-15T06:25:04;13.60;86.40
32217;DHT22;67098;51.140;4.088;2023-04-15T06:27:29;13.60;85.90
32217;DHT22;67098;51.140;4.088;2023-04-15T06:29:55;13.70;85.90
32217;DHT22;67098;51.140;4.088;2023-04-15T06:32:21;13.70;86.20
32217;DHT22;67098;51.140;4.088;2023-04-15T06:34:46;13.80;86.30
32217;DHT22;67098;51.140;4.088;2023-04-15T06:37:12;13.90;86.90
32217;DHT22;67098;51.140;4.088;2023-04-15T06:39:40;14.00;86.60
32217;DHT22;67098;51.140;4.088;2023-04-15T06:42:07;14.10;86.50
32217;DHT22;67098;51.140;4.088;2023-04-15T06:44:33;14.20;85.40
32217;DHT22;67098;51.140;4.088;2023-04-15T06:46:59;14.20;84.20
32217;DHT22;67098;51.140;4.088;2023-04-15T06:49:25;14.20;83.80
32217;DHT22;67098;51.140;4.088;2023-04-15T06:51:51;14.30;83.40
32217;DHT22;67098;51.140;4.088;2023-04-15T06:54:17;14.40;83.90
32217;DHT22;67098;51.140;4.088;2023-04-15T06:56:43;14.30;82.00
32217;DHT22;67098;51.140;4.088;2023-04-15T06:59:08;14.40;81.90
32217;DHT22;67098;51.140;4.088;2023-04-15T07:01:34;14.40;82.10
32217;DHT22;67098;51.140;4.088;2023-04-15T07:04:00;14.30;82.00
32217;DHT22;67098;51.140;4.088;2023-04-15T07:06:26;14.20;80.90
32217;DHT22;67098;51.140;4.088;2023-04-15T07:08:52;14.20;80.10
32217;DHT22;67098;51.140;4.088;2023-04-15T07:11:19;14.20;80.50
32217;DHT22;67098;51.140;4.088;2023-04-15T07:13:45;14.40;79.40
32217;DHT22;67098;51.140;4.088;2023-04-15T07:16:11;14.50;79.20
32217;DHT22;67098;51.140;4.088;2023-04-15T07:18:37;14.60;78.90
32217;DHT22;67098;51.140;4.088;2023-04-15T07:21:02;14.70;77.80
32217;DHT22;67098;51.140;4.088;2023-04-15T07:23:28;14.80;77.90
32217;DHT22;67098;51.140;4.088;2023-04-15T07:25:54;14.90;77.80
32217;DHT22;67098;51.140;4.088;2023-04-15T07:28:20;14.90;77.40
32217;DHT22;67098;51.140;4.088;2023-04-15T07:30:45;15.00;76.50
32217;DHT22;67098;51.140;4.088;2023-04-15T07:33:11;15.20;76.80
32217;DHT22;67098;51.140;4.088;2023-04-15T07:35:37;15.50;76.00
32217;DHT22;67098;51.140;4.088;2023-04-15T07:38:02;15.50;75.80
32217;DHT22;67098;51.140;4.088;2023-04-15T07:40:28;15.80;75.90
32217;DHT22;67098;51.140;4.088;2023-04-15T07:42:55;16.10;75.30
32217;DHT22;67098;51.140;4.088;2023-04-15T07:45:23;16.20;73.20
32217;DHT22;67098;51.140;4.088;2023-04-15T07:47:48;16.10;73.50
32217;DHT22;67098;51.140;4.088;2023-04-15T07:50:15;16.10;73.40
32217;DHT22;67098;51.140;4.088;2023-04-15T07:52:42;16.30;72.20
32217;DHT22;67098;51.140;4.088;2023-04-15T07:55:08;16.30;71.70
32217;DHT22;67098;51.140;4.088;2023-04-15T07:57:35;16.30;71.90
32217;DHT22;67098;51.140;4.088;2023-04-15T08:00:02;16.70;71.10
32217;DHT22;67098;51.140;4.088;2023-04-15T08:02:29;17.00;71.00
32217;DHT22;67098;51.140;4.088;2023-04-15T08:04:55;17.20;70.10
32217;DHT22;67098;51.140;4.088;2023-04-15T08:07:22;17.50;68.20
32217;DHT22;67098;51.140;4.088;2023-04-15T08:09:47;17.70;67.70
32217;DHT22;67098;51.140;4.088;2023-04-15T08:12:13;18.00;66.50
32217;DHT22;67098;51.140;4.088;2023-04-15T08:14:39;18.20;66.70
32217;DHT22;67098;51.140;4.088;2023-04-15T08:17:05;18.30;65.40
32217;DHT22;67098;51.140;4.088;2023-04-15T08:19:31;18.30;66.00
32217;DHT22;67098;51.140;4.088;2023-04-15T08:21:56;18.20;64.30
32217;DHT22;67098;51.140;4.088;2023-04-15T08:24:23;18.00;65.00
32217;DHT22;67098;51.140;4.088;2023-04-15T08:26:51;17.80;64.80
32217;DHT22;67098;51.140;4.088;2023-04-15T08:29:16;17.70;66.40
32217;DHT22;67098;51.140;4.088;2023-04-15T08:31:42;17.70;66.70
32217;DHT22;67098;51.140;4.088;2023-04-15T08:34:08;17.70;66.00
32217;DHT22;67098;51.140;4.088;2023-04-15T08:36:33;17.80;66.80
32217;DHT22;67098;51.140;4.088;2023-04-15T08:38:59;18.10;66.30
32217;DHT22;67098;51.140;4.088;2023-04-15T08:41:37;18.10;64.70
32217;DHT22;67098;51.140;4.088;2023-04-15T08:44:04;18.30;64.70
32217;DHT22;67098;51.140;4.088;2023-04-15T08:46:31;18.60;65.30
32217;DHT22;67098;51.140;4.088;2023-04-15T08:49:02;18.80;64.50
32217;DHT22;67098;51.140;4.088;2023-04-15T08:51:28;19.00;63.00
32217;DHT22;67098;51.140;4.088;2023-04-15T08:53:54;19.20;62.90
32217;DHT22;67098;51.140;4.088;2023-04-15T08:56:24;19.40;62.20
32217;DHT22;67098;51.140;4.088;2023-04-15T08:58:51;19.50;61.20
32217;DHT22;67098;51.140;4.088;2023-04-15T09:01:17;19.60;61.00
32217;DHT22;67098;51.140;4.088;2023-04-15T09:03:43;19.50;60.40
32217;DHT22;67098;51.140;4.088;2023-04-15T09:06:10;19.60;61.10
32217;DHT22;67098;51.140;4.088;2023-04-15T09:08:36;19.80;60.90
32217;DHT22;67098;51.140;4.088;2023-04-15T09:11:02;20.20;60.30
32217;DHT22;67098;51.140;4.088;2023-04-15T09:13:28;20.40;60.20
32217;DHT22;67098;51.140;4.088;2023-04-15T09:15:55;20.90;58.30
32217;DHT22;67098;51.140;4.088;2023-04-15T09:18:30;21.10;56.10
32217;DHT22;67098;51.140;4.088;2023-04-15T09:21:12;20.90;55.40
32217;DHT22;67098;51.140;4.088;2023-04-15T09:23:59;20.70;55.10
32217;DHT22;67098;51.140;4.088;2023-04-15T09:26:36;21.20;54.10
32217;DHT22;67098;51.140;4.088;2023-04-15T09:29:06;21.60;54.20
32217;DHT22;67098;51.140;4.088;2023-04-15T09:31:32;21.90;54.00
32217;DHT22;67098;51.140;4.088;2023-04-15T09:33:58;22.20;52.30
32217;DHT22;67098;51.140;4.088;2023-04-15T09:36:24;22.30;50.80
32217;DHT22;67098;51.140;4.088;2023-04-15T09:38:59;21.70;48.70
32217;DHT22;67098;51.140;4.088;2023-04-15T09:41:25;21.60;49.70
32217;DHT22;67098;51.140;4.088;2023-04-15T09:43:51;21.60;51.60
32217;DHT22;67098;51.140;4.088;2023-04-15T09:46:17;21.80;51.30
32217;DHT22;67098;51.140;4.088;2023-04-15T09:48:43;22.00;51.30
32217;DHT22;67098;51.140;4.088;2023-04-15T09:51:09;22.50;50.70
32217;DHT22;67098;51.140;4.088;2023-04-15T09:53:36;22.60;49.70
32217;DHT22;67098;51.140;4.088;2023-04-15T09:56:03;22.50;48.90
32217;DHT22;67098;51.140;4.088;2023-04-15T09:58:30;22.30;48.00
32217;DHT22;67098;51.140;4.088;2023-04-15T10:00:58;22.50;48.10
32217;DHT22;67098;51.140;4.088;2023-04-15T10:03:27;22.70;48.80
32217;DHT22;67098;51.140;4.088;2023-04-15T10:05:54;23.20;47.80
32217;DHT22;67098;51.140;4.088;2023-04-15T10:08:23;23.40;48.60
32217;DHT22;67098;51.140;4.088;2023-04-15T10:10:50;23.40;48.40
32217;DHT22;67098;51.140;4.088;2023-04-15T10:13:21;23.70;48.90
32217;DHT22;67098;51.140;4.088;2023-04-15T10:15:59;23.90;49.00
32217;DHT22;67098;51.140;4.088;2023-04-15T10:18:27;24.00;47.70
32217;DHT22;67098;51.140;4.088;2023-04-15T10:20:53;24.00;46.30
32217;DHT22;67098;51.140;4.088;2023-04-15T10:23:21;24.30;45.50
32217;DHT22;67098;51.140;4.088;2023-04-15T10:25:48;24.50;45.10
32217;DHT22;67098;51.140;4.088;2023-04-15T10:28:16;24.60;43.00
32217;DHT22;67098;51.140;4.088;2023-04-15T10:30:42;24.90;43.00
32217;DHT22;67098;51.140;4.088;2023-04-15T10:33:09;24.60;43.60
32217;DHT22;67098;51.140;4.088;2023-04-15T10:35:35;24.60;43.80
32217;DHT22;67098;51.140;4.088;2023-04-15T10:38:02;24.80;43.40
32217;DHT22;67098;51.140;4.088;2023-04-15T10:40:49;25.30;43.70
32217;DHT22;67098;51.140;4.088;2023-04-15T10:43:24;25.20;40.40
32217;DHT22;67098;51.140;4.088;2023-04-15T10:45:52;25.10;38.30
32217;DHT22;67098;51.140;4.088;2023-04-15T10:48:18;24.70;38.80
32217;DHT22;67098;51.140;4.088;2023-04-15T10:50:56;24.40;37.90
32217;DHT22;67098;51.140;4.088;2023-04-15T10:53:31;24.40;40.40
32217;DHT22;67098;51.140;4.088;2023-04-15T10:55:58;24.70;40.00
32217;DHT22;67098;51.140;4.088;2023-04-15T10:58:24;24.80;40.70
32217;DHT22;67098;51.140;4.088;2023-04-15T11:00:51;24.90;40.10
32217;DHT22;67098;51.140;4.088;2023-04-15T11:03:36;25.10;39.90
32217;DHT22;67098;51.140;4.088;2023-04-15T11:06:04;25.40;40.10
32217;DHT22;67098;51.140;4.088;2023-04-15T11:08:57;25.70;40.80
32217;DHT22;67098;51.140;4.088;2023-04-15T11:14:27;26.30;39.00
32217;DHT22;67098;51.140;4.088;2023-04-15T11:16:53;26.50;37.30
32217;DHT22;67098;51.140;4.088;2023-04-15T11:19:18;26.50;36.10
32217;DHT22;67098;51.140;4.088;2023-04-15T11:21:44;26.70;36.30
32217;DHT22;67098;51.140;4.088;2023-04-15T11:24:10;26.00;35.20
32217;DHT22;67098;51.140;4.088;2023-04-15T11:26:36;26.30;37.20
32217;DHT22;67098;51.140;4.088;2023-04-15T11:29:01;26.30;37.80
32217;DHT22;67098;51.140;4.088;2023-04-15T11:31:27;26.30;38.40
32217;DHT22;67098;51.140;4.088;2023-04-15T11:33:57;26.70;38.40
32217;DHT22;67098;51.140;4.088;2023-04-15T11:36:30;27.00;37.60
32217;DHT22;67098;51.140;4.088;2023-04-15T11:38:59;27.00;35.80
32217;DHT22;67098;51.140;4.088;2023-04-15T11:41:25;27.00;36.80
32217;DHT22;67098;51.140;4.088;2023-04-15T11:43:51;27.20;36.50
32217;DHT22;67098;51.140;4.088;2023-04-15T11:46:17;27.40;34.30
32217;DHT22;67098;51.140;4.088;2023-04-15T11:48:45;27.40;34.20
32217;DHT22;67098;51.140;4.088;2023-04-15T11:51:11;27.30;34.10
32217;DHT22;67098;51.140;4.088;2023-04-15T11:53:47;27.40;36.40
32217;DHT22;67098;51.140;4.088;2023-04-15T11:58:43;28.10;37.60
32217;DHT22;67098;51.140;4.088;2023-04-15T12:01:10;28.00;34.70
32217;DHT22;67098;51.140;4.088;2023-04-15T12:03:38;28.00;33.40
32217;DHT22;67098;51.140;4.088;2023-04-15T12:06:10;28.20;35.00
32217;DHT22;67098;51.140;4.088;2023-04-15T12:11:27;28.30;36.10
32217;DHT22;67098;51.140;4.088;2023-04-15T12:14:08;28.40;36.40
32217;DHT22;67098;51.140;4.088;2023-04-15T12:16:36;28.60;36.00
32217;DHT22;67098;51.140;4.088;2023-04-15T12:19:14;28.80;36.50
32217;DHT22;67098;51.140;4.088;2023-04-15T12:21:43;28.70;36.70
32217;DHT22;67098;51.140;4.088;2023-04-15T12:24:10;28.90;36.50
32217;DHT22;67098;51.140;4.088;2023-04-15T12:26:46;28.70;36.40
32217;DHT22;67098;51.140;4.088;2023-04-15T12:29:13;28.70;36.50
32217;DHT22;67098;51.140;4.088;2023-04-15T12:32:07;28.80;35.20
32217;DHT22;67098;51.140;4.088;2023-04-15T12:34:35;28.30;34.70
32217;DHT22;67098;51.140;4.088;2023-04-15T12:37:02;28.10;33.60
32217;DHT22;67098;51.140;4.088;2023-04-15T12:39:30;28.00;34.30
32217;DHT22;67098;51.140;4.088;2023-04-15T12:41:57;28.10;35.00
32217;DHT22;67098;51.140;4.088;2023-04-15T12:44:23;28.40;36.10
32217;DHT22;67098;51.140;4.088;2023-04-15T12:46:50;28.20;36.00
32217;DHT22;67098;51.140;4.088;2023-04-15T12:49:17;28.30;36.10
32217;DHT22;67098;51.140;4.088;2023-04-15T12:51:46;28.50;35.70
32217;DHT22;67098;51.140;4.088;2023-04-15T12:54:13;28.60;35.80
32217;DHT22;67098;51.140;4.088;2023-04-15T12:56:38;28.80;36.10
32217;DHT22;67098;51.140;4.088;2023-04-15T12:59:04;28.90;34.80
32217;DHT22;67098;51.140;4.088;2023-04-15T13:01:30;28.70;34.60
32217;DHT22;67098;51.140;4.088;2023-04-15T13:03:56;28.80;35.20
32217;DHT22;67098;51.140;4.088;2023-04-15T13:06:21;29.10;34.40
32217;DHT22;67098;51.140;4.088;2023-04-15T13:08:48;29.30;35.10
32217;DHT22;67098;51.140;4.088;2023-04-15T13:11:14;29.40;35.20
32217;DHT22;67098;51.140;4.088;2023-04-15T13:13:39;29.60;35.30
32217;DHT22;67098;51.140;4.088;2023-04-15T13:16:05;29.40;35.70
32217;DHT22;67098;51.140;4.088;2023-04-15T13:18:31;29.50;35.50
32217;DHT22;67098;51.140;4.088;2023-04-15T13:20:59;29.50;35.10
32217;DHT22;67098;51.140;4.088;2023-04-15T13:23:25;29.40;34.50
32217;DHT22;67098;51.140;4.088;2023-04-15T13:25:51;29.10;34.80
32217;DHT22;67098;51.140;4.088;2023-04-15T13:28:16;28.80;33.50
32217;DHT22;67098;51.140;4.088;2023-04-15T13:30:42;28.90;34.10
32217;DHT22;67098;51.140;4.088;2023-04-15T13:33:08;29.10;34.10
32217;DHT22;67098;51.140;4.088;2023-04-15T13:35:34;29.10;34.50
32217;DHT22;67098;51.140;4.088;2023-04-15T13:38:00;28.90;35.00
32217;DHT22;67098;51.140;4.088;2023-04-15T13:40:26;28.80;34.70
32217;DHT22;67098;51.140;4.088;2023-04-15T13:42:52;28.80;35.60
32217;DHT22;67098;51.140;4.088;2023-04-15T13:45:18;28.50;35.50
32217;DHT22;67098;51.140;4.088;2023-04-15T13:47:43;28.50;35.80
32217;DHT22;67098;51.140;4.088;2023-04-15T13:50:10;28.80;35.20
32217;DHT22;67098;51.140;4.088;2023-04-15T13:52:36;29.00;35.50
32217;DHT22;67098;51.140;4.088;2023-04-15T13:55:02;29.00;35.30
32217;DHT22;67098;51.140;4.088;2023-04-15T13:57:28;29.00;35.40
32217;DHT22;67098;51.140;4.088;2023-04-15T13:59:54;29.10;35.70
32217;DHT22;67098;51.140;4.088;2023-04-15T14:02:20;29.30;35.40
32217;DHT22;67098;51.140;4.088;2023-04-15T14:04:46;29.80;35.20
32217;DHT22;67098;51.140;4.088;2023-04-15T14:07:12;29.70;34.20
32217;DHT22;67098;51.140;4.088;2023-04-15T14:09:37;29.50;34.80
32217;DHT22;67098;51.140;4.088;2023-04-15T14:12:03;29.40;35.60
32217;DHT22;67098;51.140;4.088;2023-04-15T14:14:29;29.00;36.80
32217;DHT22;67098;51.140;4.088;2023-04-15T14:16:55;28.30;39.00
32217;DHT22;67098;51.140;4.088;2023-04-15T14:19:21;27.70;39.60
32217;DHT22;67098;51.140;4.088;2023-04-15T14:21:47;27.30;39.70
32217;DHT22;67098;51.140;4.088;2023-04-15T14:24:13;27.50;40.80
32217;DHT22;67098;51.140;4.088;2023-04-15T14:26:39;27.60;40.60
32217;DHT22;67098;51.140;4.088;2023-04-15T14:29:04;27.80;40.40
32217;DHT22;67098;51.140;4.088;2023-04-15T14:31:30;27.80;40.40
32217;DHT22;67098;51.140;4.088;2023-04-15T14:33:56;27.70;40.60
32217;DHT22;67098;51.140;4.088;2023-04-15T14:36:21;26.80;41.10
32217;DHT22;67098;51.140;4.088;2023-04-15T14:38:47;26.30;42.00
32217;DHT22;67098;51.140;4.088;2023-04-15T14:41:13;26.30;42.60
32217;DHT22;67098;51.140;4.088;2023-04-15T14:43:38;26.10;43.20
32217;DHT22;67098;51.140;4.088;2023-04-15T14:46:04;26.40;43.70
32217;DHT22;67098;51.140;4.088;2023-04-15T14:48:30;26.80;42.50
32217;DHT22;67098;51.140;4.088;2023-04-15T14:50:56;27.10;41.90
32217;DHT22;67098;51.140;4.088;2023-04-15T14:53:22;27.40;41.60
32217;DHT22;67098;51.140;4.088;2023-04-15T14:55:48;27.10;41.80
32217;DHT22;67098;51.140;4.088;2023-04-15T14:58:13;27.10;41.90
32217;DHT22;67098;51.140;4.088;2023-04-15T15:00:39;27.30;41.50
32217;DHT22;67098;51.140;4.088;2023-04-15T15:03:09;26.90;41.30
32217;DHT22;67098;51.140;4.088;2023-04-15T15:05:43;26.80;41.60
32217;DHT22;67098;51.140;4.088;2023-04-15T15:08:09;27.00;41.60
32217;DHT22;67098;51.140;4.088;2023-04-15T15:10:36;27.40;41.40
32217;DHT22;67098;51.140;4.088;2023-04-15T15:13:03;27.60;40.80
32217;DHT22;67098;51.140;4.088;2023-04-15T15:15:29;27.50;41.00
32217;DHT22;67098;51.140;4.088;2023-04-15T15:17:54;27.30;40.80
32217;DHT22;67098;51.140;4.088;2023-04-15T15:20:20;27.20;41.20
32217;DHT22;67098;51.140;4.088;2023-04-15T15:22:46;27.10;41.50
32217;DHT22;67098;51.140;4.088;2023-04-15T15:25:11;27.20;41.40
32217;DHT22;67098;51.140;4.088;2023-04-15T15:27:37;27.30;41.00
32217;DHT22;67098;51.140;4.088;2023-04-15T15:30:03;27.20;40.90
32217;DHT22;67098;51.140;4.088;2023-04-15T15:32:30;26.90;40.60
32217;DHT22;67098;51.140;4.088;2023-04-15T15:34:56;26.60;40.50